sensor_id;sensor_type;location;lat;lon;timestamp;pressure;altitude;pressure_sealevel;temperature;humidity
54455;BME280;40364;52.270;10.546;2022-12-18T00:00:57;102027.75;;;-0.30;63.95
54455;BME280;40364;52.270;10.546;2022-12-18T00:03:25;102029.41;;;-0.29;63.53
54455;BME280;40364;52.270;10.546;2022-12-18T00:05:53;102028.38;;;-0.17;63.06
54455;BME280;40364;52.270;10.546;2022-12-18T00:08:19;102034.41;;;-0.50;64.15
54455;BME280;40364;52.270;10.546;2022-12-18T00:10:46;102044.78;;;-0.82;65.44
54455;BME280;40364;52.270;10.546;2022-12-18T00:13:13;102042.09;;;-1.00;68.61
54455;BME280;40364;52.270;10.546;2022-12-18T00:15:40;102038.84;;;-1.09;68.01
54455;BME280;40364;52.270;10.546;2022-12-18T00:18:06;102039.47;;;-1.25;69.17
54455;BME280;40364;52.270;10.546;2022-12-18T00:20:36;102038.41;;;-1.24;70.32
54455;BME280;40364;52.270;10.546;2022-12-18T00:23:05;102056.47;;;-1.41;70.97
54455;BME280;40364;52.270;10.546;2022-12-18T00:25:33;102047.84;;;-1.38;70.80
54455;BME280;40364;52.270;10.546;2022-12-18T00:28:00;102058.00;;;-1.27;69.78
54455;BME280;40364;52.270;10.546;2022-12-18T00:30:27;102050.06;;;-1.17;69.48
54455;BME280;40364;52.270;10.546;2022-12-18T00:32:54;102063.78;;;-1.53;71.05
54455;BME280;40364;52.270;10.546;2022-12-18T00:35:21;102049.50;;;-0.89;67.13
54455;BME280;40364;52.270;10.546;2022-12-18T00:37:48;102047.97;;;-1.15;67.48
54455;BME280;40364;52.270;10.546;2022-12-18T00:40:16;102046.28;;;-0.97;66.61
54455;BME280;40364;52.270;10.546;2022-12-18T00:42:43;102051.13;;;-0.99;66.48
54455;BME280;40364;52.270;10.546;2022-12-18T00:45:21;102050.59;;;-1.08;66.00
54455;BME280;40364;52.270;10.546;2022-12-18T00:47:48;102046.59;;;-0.76;64.57
54455;BME280;40364;52.270;10.546;2022-12-18T00:50:14;102059.19;;;-1.05;65.59
54455;BME280;40364;52.270;10.546;2022-12-18T00:52:41;102056.09;;;-1.45;67.93
54455;BME280;40364;52.270;10.546;2022-12-18T00:55:09;102071.72;;;-1.70;70.80
54455;BME280;40364;52.270;10.546;2022-12-18T00:57:37;102071.00;;;-1.41;70.07
54455;BME280;40364;52.270;10.546;2022-12-18T01:00:05;102077.81;;;-1.50;69.55
54455;BME280;40364;52.270;10.546;2022-12-18T01:02:32;102078.75;;;-1.81;71.10
54455;BME280;40364;52.270;10.546;2022-12-18T01:04:58;102081.34;;;-1.86;71.87
54455;BME280;40364;52.270;10.546;2022-12-18T01:07:25;102079.41;;;-1.60;70.27
54455;BME280;40364;52.270;10.546;2022-12-18T01:09:52;102082.28;;;-1.74;71.14
54455;BME280;40364;52.270;10.546;2022-12-18T01:12:19;102078.63;;;-1.86;71.84
54455;BME280;40364;52.270;10.546;2022-12-18T01:14:47;102080.44;;;-1.80;71.80
54455;BME280;40364;52.270;10.546;2022-12-18T01:19:41;102079.63;;;-2.30;72.29
54455;BME280;40364;52.270;10.546;2022-12-18T01:22:08;102082.97;;;-2.03;72.97
54455;BME280;40364;52.270;10.546;2022-12-18T01:24:34;102090.06;;;-1.95;73.13
54455;BME280;40364;52.270;10.546;2022-12-18T01:27:01;102092.41;;;-1.81;70.88
54455;BME280;40364;52.270;10.546;2022-12-18T01:29:28;102096.25;;;-1.63;71.33
54455;BME280;40364;52.270;10.546;2022-12-18T01:31:56;102100.81;;;-1.21;68.71
54455;BME280;40364;52.270;10.546;2022-12-18T01:34:23;102105.38;;;-1.94;70.47
54455;BME280;40364;52.270;10.546;2022-12-18T01:36:50;102108.88;;;-1.62;69.41
54455;BME280;40364;52.270;10.546;2022-12-18T01:39:18;102097.81;;;-2.17;71.97
54455;BME280;40364;52.270;10.546;2022-12-18T01:41:46;102100.69;;;-2.12;71.37
54455;BME280;40364;52.270;10.546;2022-12-18T01:44:57;102103.81;;;-2.09;71.17
54455;BME280;40364;52.270;10.546;2022-12-18T01:47:30;102096.97;;;-2.18;72.07
54455;BME280;40364;52.270;10.546;2022-12-18T01:50:02;102095.19;;;-2.06;70.51
54455;BME280;40364;52.270;10.546;2022-12-18T01:52:31;102087.19;;;-2.07;70.22
54455;BME280;40364;52.270;10.546;2022-12-18T01:55:00;102093.53;;;-1.45;66.13
54455;BME280;40364;52.270;10.546;2022-12-18T01:57:28;102095.66;;;-1.47;64.91
54455;BME280;40364;52.270;10.546;2022-12-18T01:59:59;102096.19;;;-1.39;63.84
54455;BME280;40364;52.270;10.546;2022-12-18T02:02:28;102102.72;;;-1.58;64.59
54455;BME280;40364;52.270;10.546;2022-12-18T02:04:56;102105.13;;;-1.50;63.59
54455;BME280;40364;52.270;10.546;2022-12-18T02:07:28;102093.53;;;-1.45;63.27
54455;BME280;40364;52.270;10.546;2022-12-18T02:10:00;102096.59;;;-1.78;64.20
54455;BME280;40364;52.270;10.546;2022-12-18T02:12:33;102102.97;;;-1.23;63.75
54455;BME280;40364;52.270;10.546;2022-12-18T02:15:10;102083.97;;;-2.47;69.07
54455;BME280;40364;52.270;10.546;2022-12-18T02:17:43;102080.44;;;-1.80;66.53
54455;BME280;40364;52.270;10.546;2022-12-18T02:20:14;102095.16;;;-1.81;66.90
54455;BME280;40364;52.270;10.546;2022-12-18T02:22:53;102094.16;;;-2.11;66.77
54455;BME280;40364;52.270;10.546;2022-12-18T02:25:42;102099.94;;;-2.19;68.76
54455;BME280;40364;52.270;10.546;2022-12-18T02:28:15;102099.50;;;-2.48;71.14
54455;BME280;40364;52.270;10.546;2022-12-18T02:30:46;102096.81;;;-2.54;70.44
54455;BME280;40364;52.270;10.546;2022-12-18T02:33:14;102098.91;;;-2.25;68.55
54455;BME280;40364;52.270;10.546;2022-12-18T02:35:42;102097.88;;;-1.81;65.11
54455;BME280;40364;52.270;10.546;2022-12-18T02:38:11;102092.72;;;-1.89;65.02
54455;BME280;40364;52.270;10.546;2022-12-18T02:40:38;102099.41;;;-2.34;65.75
54455;BME280;40364;52.270;10.546;2022-12-18T02:43:10;102104.78;;;-1.53;63.83
54455;BME280;40364;52.270;10.546;2022-12-18T02:45:48;102108.44;;;-1.23;61.63
54455;BME280;40364;52.270;10.546;2022-12-18T02:48:17;102105.06;;;-1.43;60.67
54455;BME280;40364;52.270;10.546;2022-12-18T02:50:50;102105.31;;;-1.45;61.94
54455;BME280;40364;52.270;10.546;2022-12-18T02:53:25;102104.69;;;-1.10;60.96
54455;BME280;40364;52.270;10.546;2022-12-18T02:56:00;102108.28;;;-1.10;60.44
54455;BME280;40364;52.270;10.546;2022-12-18T02:58:33;102097.88;;;-1.38;60.65
54455;BME280;40364;52.270;10.546;2022-12-18T03:01:09;102103.91;;;-1.72;62.55
54455;BME280;40364;52.270;10.546;2022-12-18T03:03:40;102107.31;;;-1.77;63.67
54455;BME280;40364;52.270;10.546;2022-12-18T03:06:13;102100.69;;;-1.87;64.25
54455;BME280;40364;52.270;10.546;2022-12-18T03:08:46;102102.63;;;-1.70;64.30
54455;BME280;40364;52.270;10.546;2022-12-18T03:11:15;102109.41;;;-1.36;61.70
54455;BME280;40364;52.270;10.546;2022-12-18T03:14:04;102094.53;;;-1.58;62.55
54455;BME280;40364;52.270;10.546;2022-12-18T03:16:34;102093.22;;;-1.98;64.97
54455;BME280;40364;52.270;10.546;2022-12-18T03:19:05;102099.25;;;-2.15;65.89
54455;BME280;40364;52.270;10.546;2022-12-18T03:21:37;102102.84;;;-2.14;67.30
54455;BME280;40364;52.270;10.546;2022-12-18T03:24:07;102096.66;;;-1.60;63.79
54455;BME280;40364;52.270;10.546;2022-12-18T03:26:35;102101.44;;;-1.55;63.24
54455;BME280;40364;52.270;10.546;2022-12-18T03:29:07;102102.41;;;-1.50;61.94
54455;BME280;40364;52.270;10.546;2022-12-18T03:31:39;102107.44;;;-1.10;60.64
54455;BME280;40364;52.270;10.546;2022-12-18T03:34:09;102087.03;;;-1.26;60.54
54455;BME280;40364;52.270;10.546;2022-12-18T03:36:39;102089.44;;;-1.18;60.02
54455;BME280;40364;52.270;10.546;2022-12-18T03:39:06;102083.25;;;-2.11;63.45
54455;BME280;40364;52.270;10.546;2022-12-18T03:41:37;102077.41;;;-2.15;64.93
54455;BME280;40364;52.270;10.546;2022-12-18T03:44:12;102093.84;;;-1.96;64.18
54455;BME280;40364;52.270;10.546;2022-12-18T03:46:45;102093.16;;;-1.67;64.67
54455;BME280;40364;52.270;10.546;2022-12-18T03:49:19;102095.91;;;-2.17;65.76
54455;BME280;40364;52.270;10.546;2022-12-18T03:51:50;102091.94;;;-2.21;64.92
54455;BME280;40364;52.270;10.546;2022-12-18T03:54:20;102091.16;;;-2.97;70.09
54455;BME280;40364;52.270;10.546;2022-12-18T03:56:51;102086.19;;;-2.69;71.00
54455;BME280;40364;52.270;10.546;2022-12-18T03:59:21;102088.56;;;-1.91;65.96
54455;BME280;40364;52.270;10.546;2022-12-18T04:01:52;102093.69;;;-1.22;62.92
54455;BME280;40364;52.270;10.546;2022-12-18T04:04:21;102096.38;;;-1.33;62.32
54455;BME280;40364;52.270;10.546;2022-12-18T04:06:49;102093.41;;;-1.32;62.26
54455;BME280;40364;52.270;10.546;2022-12-18T04:09:17;102088.53;;;-1.30;61.33
54455;BME280;40364;52.270;10.546;2022-12-18T04:11:45;102087.38;;;-1.04;60.29
54455;BME280;40364;52.270;10.546;2022-12-18T04:14:12;102084.25;;;-1.08;60.14
54455;BME280;40364;52.270;10.546;2022-12-18T04:16:39;102083.38;;;-1.56;60.05
54455;BME280;40364;52.270;10.546;2022-12-18T04:19:07;102075.44;;;-1.10;60.16
54455;BME280;40364;52.270;10.546;2022-12-18T04:21:34;102079.81;;;-1.57;60.93
54455;BME280;40364;52.270;10.546;2022-12-18T04:24:00;102079.56;;;-1.19;59.73
54455;BME280;40364;52.270;10.546;2022-12-18T04:26:27;102071.06;;;-1.47;60.08
54455;BME280;40364;52.270;10.546;2022-12-18T04:28:54;102086.91;;;-1.19;59.37
54455;BME280;40364;52.270;10.546;2022-12-18T04:31:20;102094.06;;;-1.18;59.36
54455;BME280;40364;52.270;10.546;2022-12-18T04:33:47;102098.84;;;-1.50;60.73
54455;BME280;40364;52.270;10.546;2022-12-18T04:36:15;102106.56;;;-1.84;61.78
54455;BME280;40364;52.270;10.546;2022-12-18T04:38:42;102103.44;;;-1.26;60.20
54455;BME280;40364;52.270;10.546;2022-12-18T04:41:09;102104.63;;;-1.22;59.28
54455;BME280;40364;52.270;10.546;2022-12-18T04:43:35;102103.69;;;-1.52;59.71
54455;BME280;40364;52.270;10.546;2022-12-18T04:46:03;102100.94;;;-1.89;61.67
54455;BME280;40364;52.270;10.546;2022-12-18T04:48:30;102096.56;;;-1.96;61.98
54455;BME280;40364;52.270;10.546;2022-12-18T04:50:57;102095.47;;;-1.89;62.93
54455;BME280;40364;52.270;10.546;2022-12-18T04:53:25;102097.78;;;-1.67;61.55
54455;BME280;40364;52.270;10.546;2022-12-18T04:56:02;102094.50;;;-2.01;60.25
54455;BME280;40364;52.270;10.546;2022-12-18T04:58:29;102107.69;;;-1.73;60.07
54455;BME280;40364;52.270;10.546;2022-12-18T05:00:56;102099.53;;;-1.98;61.02
54455;BME280;40364;52.270;10.546;2022-12-18T05:03:23;102094.63;;;-2.14;62.89
54455;BME280;40364;52.270;10.546;2022-12-18T05:05:49;102094.00;;;-1.91;60.29
54455;BME280;40364;52.270;10.546;2022-12-18T05:08:16;102094.03;;;-2.48;63.80
54455;BME280;40364;52.270;10.546;2022-12-18T05:10:44;102077.47;;;-2.84;66.74
54455;BME280;40364;52.270;10.546;2022-12-18T05:13:11;102075.41;;;-2.26;63.52
54455;BME280;40364;52.270;10.546;2022-12-18T05:15:37;102068.94;;;-2.07;61.58
54455;BME280;40364;52.270;10.546;2022-12-18T05:18:04;102076.78;;;-1.92;61.49
54455;BME280;40364;52.270;10.546;2022-12-18T05:20:31;102073.34;;;-2.30;62.11
54455;BME280;40364;52.270;10.546;2022-12-18T05:22:58;102069.22;;;-2.15;62.50
54455;BME280;40364;52.270;10.546;2022-12-18T05:25:24;102081.34;;;-2.67;63.63
54455;BME280;40364;52.270;10.546;2022-12-18T05:27:52;102084.78;;;-2.78;66.47
54455;BME280;40364;52.270;10.546;2022-12-18T05:30:19;102083.72;;;-3.15;68.34
54455;BME280;40364;52.270;10.546;2022-12-18T05:32:46;102082.22;;;-2.73;67.48
54455;BME280;40364;52.270;10.546;2022-12-18T05:35:12;102084.00;;;-2.54;65.26
54455;BME280;40364;52.270;10.546;2022-12-18T05:37:39;102084.91;;;-2.66;66.47
54455;BME280;40364;52.270;10.546;2022-12-18T05:40:07;102091.63;;;-2.69;66.18
54455;BME280;40364;52.270;10.546;2022-12-18T05:42:34;102089.50;;;-2.98;68.30
54455;BME280;40364;52.270;10.546;2022-12-18T05:45:02;102085.78;;;-2.73;67.40
54455;BME280;40364;52.270;10.546;2022-12-18T05:47:29;102078.69;;;-2.17;64.22
54455;BME280;40364;52.270;10.546;2022-12-18T05:49:56;102090.41;;;-2.42;64.77
54455;BME280;40364;52.270;10.546;2022-12-18T05:52:23;102095.09;;;-2.80;66.17
54455;BME280;40364;52.270;10.546;2022-12-18T05:54:50;102097.25;;;-2.95;67.96
54455;BME280;40364;52.270;10.546;2022-12-18T05:57:16;102093.03;;;-2.91;68.95
54455;BME280;40364;52.270;10.546;2022-12-18T05:59:43;102100.44;;;-2.67;67.63
54455;BME280;40364;52.270;10.546;2022-12-18T06:02:11;102097.28;;;-3.02;69.58
54455;BME280;40364;52.270;10.546;2022-12-18T06:04:38;102105.59;;;-2.84;68.33
54455;BME280;40364;52.270;10.546;2022-12-18T06:07:04;102116.97;;;-3.00;69.46
54455;BME280;40364;52.270;10.546;2022-12-18T06:09:31;102118.00;;;-2.94;68.25
54455;BME280;40364;52.270;10.546;2022-12-18T06:11:58;102125.88;;;-2.73;68.10
54455;BME280;40364;52.270;10.546;2022-12-18T06:14:25;102123.53;;;-2.69;67.51
54455;BME280;40364;52.270;10.546;2022-12-18T06:16:51;102122.28;;;-2.67;65.60
54455;BME280;40364;52.270;10.546;2022-12-18T06:19:19;102133.56;;;-2.57;66.23
54455;BME280;40364;52.270;10.546;2022-12-18T06:21:46;102126.25;;;-3.08;68.29
54455;BME280;40364;52.270;10.546;2022-12-18T06:24:14;102140.69;;;-3.00;68.54
54455;BME280;40364;52.270;10.546;2022-12-18T06:26:41;102147.88;;;-3.13;68.33
54455;BME280;40364;52.270;10.546;2022-12-18T06:29:07;102141.25;;;-3.56;71.68
54455;BME280;40364;52.270;10.546;2022-12-18T06:31:34;102142.91;;;-3.42;71.04
54455;BME280;40364;52.270;10.546;2022-12-18T06:34:04;102151.44;;;-3.19;70.88
54455;BME280;40364;52.270;10.546;2022-12-18T06:36:41;102143.72;;;-3.35;69.69
54455;BME280;40364;52.270;10.546;2022-12-18T06:39:08;102146.41;;;-3.09;69.16
54455;BME280;40364;52.270;10.546;2022-12-18T06:41:34;102152.72;;;-3.21;70.45
54455;BME280;40364;52.270;10.546;2022-12-18T06:44:01;102145.81;;;-3.24;69.68
54455;BME280;40364;52.270;10.546;2022-12-18T06:46:28;102128.66;;;-3.44;70.32
54455;BME280;40364;52.270;10.546;2022-12-18T06:48:55;102144.22;;;-2.93;70.53
54455;BME280;40364;52.270;10.546;2022-12-18T06:51:22;102136.19;;;-2.12;64.81
54455;BME280;40364;52.270;10.546;2022-12-18T06:53:51;102150.41;;;-2.73;67.84
54455;BME280;40364;52.270;10.546;2022-12-18T06:56:17;102150.56;;;-2.23;64.45
54455;BME280;40364;52.270;10.546;2022-12-18T06:58:47;102152.56;;;-2.12;62.48
54455;BME280;40364;52.270;10.546;2022-12-18T07:01:14;102155.88;;;-2.35;63.82
54455;BME280;40364;52.270;10.546;2022-12-18T07:03:41;102145.78;;;-2.03;62.03
54455;BME280;40364;52.270;10.546;2022-12-18T07:06:13;102159.97;;;-1.88;61.44
54455;BME280;40364;52.270;10.546;2022-12-18T07:08:40;102143.44;;;-2.24;60.90
54455;BME280;40364;52.270;10.546;2022-12-18T07:11:08;102142.03;;;-2.09;61.78
54455;BME280;40364;52.270;10.546;2022-12-18T07:13:35;102148.22;;;-2.20;61.12
54455;BME280;40364;52.270;10.546;2022-12-18T07:16:06;102155.19;;;-1.74;61.11
54455;BME280;40364;52.270;10.546;2022-12-18T07:18:33;102154.28;;;-1.86;60.76
54455;BME280;40364;52.270;10.546;2022-12-18T07:21:03;102163.97;;;-1.65;60.16
54455;BME280;40364;52.270;10.546;2022-12-18T07:23:29;102162.97;;;-1.53;58.25
54455;BME280;40364;52.270;10.546;2022-12-18T07:26:01;102179.91;;;-1.62;59.16
54455;BME280;40364;52.270;10.546;2022-12-18T07:28:30;102187.97;;;-1.49;59.25
54455;BME280;40364;52.270;10.546;2022-12-18T07:30:57;102187.09;;;-1.68;59.26
54455;BME280;40364;52.270;10.546;2022-12-18T07:33:25;102200.19;;;-1.52;58.69
54455;BME280;40364;52.270;10.546;2022-12-18T07:35:52;102214.69;;;-1.51;58.43
54455;BME280;40364;52.270;10.546;2022-12-18T07:38:19;102209.69;;;-1.54;58.68
54455;BME280;40364;52.270;10.546;2022-12-18T07:40:45;102211.03;;;-1.63;58.94
54455;BME280;40364;52.270;10.546;2022-12-18T07:43:12;102200.94;;;-1.63;58.96
54455;BME280;40364;52.270;10.546;2022-12-18T07:45:42;102212.31;;;-1.41;57.97
54455;BME280;40364;52.270;10.546;2022-12-18T07:48:08;102209.34;;;-1.64;57.85
54455;BME280;40364;52.270;10.546;2022-12-18T07:50:35;102213.50;;;-1.55;57.97
54455;BME280;40364;52.270;10.546;2022-12-18T07:53:02;102222.53;;;-1.55;57.78
54455;BME280;40364;52.270;10.546;2022-12-18T07:55:30;102222.84;;;-1.70;57.97
54455;BME280;40364;52.270;10.546;2022-12-18T07:57:56;102231.56;;;-1.54;58.12
54455;BME280;40364;52.270;10.546;2022-12-18T08:00:23;102229.16;;;-2.39;61.06
54455;BME280;40364;52.270;10.546;2022-12-18T08:02:51;102239.63;;;-2.29;61.17
54455;BME280;40364;52.270;10.546;2022-12-18T08:05:18;102238.31;;;-2.20;61.48
54455;BME280;40364;52.270;10.546;2022-12-18T08:07:46;102241.72;;;-2.31;62.81
54455;BME280;40364;52.270;10.546;2022-12-18T08:10:13;102242.00;;;-1.76;60.78
54455;BME280;40364;52.270;10.546;2022-12-18T08:12:40;102234.34;;;-1.86;60.20
54455;BME280;40364;52.270;10.546;2022-12-18T08:15:07;102237.06;;;-1.36;58.75
54455;BME280;40364;52.270;10.546;2022-12-18T08:17:34;102226.38;;;-1.19;58.92
54455;BME280;40364;52.270;10.546;2022-12-18T08:20:03;102216.66;;;-1.58;59.57
54455;BME280;40364;52.270;10.546;2022-12-18T08:22:29;102215.22;;;-1.18;58.39
54455;BME280;40364;52.270;10.546;2022-12-18T08:24:56;102208.78;;;-1.48;59.31
54455;BME280;40364;52.270;10.546;2022-12-18T08:27:23;102202.31;;;-1.79;61.34
54455;BME280;40364;52.270;10.546;2022-12-18T08:29:50;102199.56;;;-1.79;61.79
54455;BME280;40364;52.270;10.546;2022-12-18T08:32:17;102191.00;;;-1.82;62.34
54455;BME280;40364;52.270;10.546;2022-12-18T08:34:43;102189.16;;;-1.39;62.02
54455;BME280;40364;52.270;10.546;2022-12-18T08:37:11;102186.44;;;-0.65;59.57
54455;BME280;40364;52.270;10.546;2022-12-18T08:39:38;102188.19;;;-0.71;57.17
54455;BME280;40364;52.270;10.546;2022-12-18T08:42:05;102142.44;;;-0.64;57.07
54455;BME280;40364;52.270;10.546;2022-12-18T08:44:49;102185.41;;;-0.35;56.38
54455;BME280;40364;52.270;10.546;2022-12-18T08:47:15;102195.13;;;-0.69;57.48
54455;BME280;40364;52.270;10.546;2022-12-18T08:49:42;102192.88;;;-0.42;56.95
54455;BME280;40364;52.270;10.546;2022-12-18T08:52:09;102173.16;;;-0.20;56.57
54455;BME280;40364;52.270;10.546;2022-12-18T08:54:37;102181.53;;;-0.15;56.60
54455;BME280;40364;52.270;10.546;2022-12-18T08:57:04;102186.88;;;-0.50;57.07
54455;BME280;40364;52.270;10.546;2022-12-18T08:59:30;102173.69;;;-0.42;56.61
54455;BME280;40364;52.270;10.546;2022-12-18T09:01:57;102188.03;;;-0.76;56.91
54455;BME280;40364;52.270;10.546;2022-12-18T09:04:24;102169.38;;;-0.49;56.92
54455;BME280;40364;52.270;10.546;2022-12-18T09:06:51;102184.69;;;-0.30;56.13
54455;BME280;40364;52.270;10.546;2022-12-18T09:09:24;102171.34;;;-0.26;55.88
54455;BME280;40364;52.270;10.546;2022-12-18T09:11:52;102176.19;;;-0.40;56.78
54455;BME280;40364;52.270;10.546;2022-12-18T09:14:19;102161.00;;;-0.24;56.14
54455;BME280;40364;52.270;10.546;2022-12-18T09:16:46;102169.28;;;-0.43;56.50
54455;BME280;40364;52.270;10.546;2022-12-18T09:19:13;102158.41;;;-0.19;56.40
54455;BME280;40364;52.270;10.546;2022-12-18T09:21:39;102160.13;;;0.05;55.68
54455;BME280;40364;52.270;10.546;2022-12-18T09:24:08;102162.63;;;-0.05;55.61
54455;BME280;40364;52.270;10.546;2022-12-18T09:26:38;102137.69;;;-0.15;55.92
54455;BME280;40364;52.270;10.546;2022-12-18T09:29:06;102161.22;;;0.16;55.84
54455;BME280;40364;52.270;10.546;2022-12-18T09:31:34;102147.88;;;-0.04;56.58
54455;BME280;40364;52.270;10.546;2022-12-18T09:36:43;102142.53;;;0.24;55.98
54455;BME280;40364;52.270;10.546;2022-12-18T09:39:09;102146.97;;;0.49;55.21
54455;BME280;40364;52.270;10.546;2022-12-18T09:41:43;102147.19;;;0.47;56.10
54455;BME280;40364;52.270;10.546;2022-12-18T09:44:18;102140.16;;;0.63;56.20
54455;BME280;40364;52.270;10.546;2022-12-18T09:46:49;102137.28;;;0.11;57.17
54455;BME280;40364;52.270;10.546;2022-12-18T09:49:19;102139.75;;;-0.11;59.41
54455;BME280;40364;52.270;10.546;2022-12-18T09:51:51;102130.59;;;0.07;59.33
54455;BME280;40364;52.270;10.546;2022-12-18T09:54:22;102127.63;;;0.32;58.68
54455;BME280;40364;52.270;10.546;2022-12-18T09:56:50;102128.84;;;0.48;57.97
54455;BME280;40364;52.270;10.546;2022-12-18T09:59:23;102106.03;;;0.00;60.29
54455;BME280;40364;52.270;10.546;2022-12-18T10:01:50;102120.47;;;-0.04;61.55
54455;BME280;40364;52.270;10.546;2022-12-18T10:04:17;102122.16;;;0.32;60.30
54455;BME280;40364;52.270;10.546;2022-12-18T10:06:49;102127.56;;;1.02;58.97
54455;BME280;40364;52.270;10.546;2022-12-18T10:09:26;102115.06;;;1.34;57.91
54455;BME280;40364;52.270;10.546;2022-12-18T10:11:59;102122.75;;;0.46;59.61
54455;BME280;40364;52.270;10.546;2022-12-18T10:14:35;102132.38;;;0.02;61.99
54455;BME280;40364;52.270;10.546;2022-12-18T10:17:15;102119.66;;;0.54;60.88
54455;BME280;40364;52.270;10.546;2022-12-18T10:19:52;102129.69;;;0.60;59.81
54455;BME280;40364;52.270;10.546;2022-12-18T10:22:30;102136.66;;;1.31;58.30
54455;BME280;40364;52.270;10.546;2022-12-18T10:25:05;102150.97;;;1.45;55.59
54455;BME280;40364;52.270;10.546;2022-12-18T10:27:33;102161.13;;;1.44;55.33
54455;BME280;40364;52.270;10.546;2022-12-18T10:30:04;102153.69;;;1.05;56.77
54455;BME280;40364;52.270;10.546;2022-12-18T10:32:38;102167.47;;;1.90;55.05
54455;BME280;40364;52.270;10.546;2022-12-18T10:35:18;102164.34;;;0.78;58.06
54455;BME280;40364;52.270;10.546;2022-12-18T10:38:03;102164.56;;;1.96;55.93
54455;BME280;40364;52.270;10.546;2022-12-18T10:40:31;102154.91;;;2.61;54.45
54455;BME280;40364;52.270;10.546;2022-12-18T10:43:05;102141.44;;;1.64;57.31
54455;BME280;40364;52.270;10.546;2022-12-18T10:45:37;102150.88;;;1.28;58.91
54455;BME280;40364;52.270;10.546;2022-12-18T10:48:04;102146.53;;;1.15;60.20
54455;BME280;40364;52.270;10.546;2022-12-18T10:50:33;102149.50;;;2.88;54.99
54455;BME280;40364;52.270;10.546;2022-12-18T10:53:03;102149.16;;;3.01;53.57
54455;BME280;40364;52.270;10.546;2022-12-18T10:55:40;102128.63;;;2.70;53.87
54455;BME280;40364;52.270;10.546;2022-12-18T10:58:23;102130.25;;;3.10;53.56
54455;BME280;40364;52.270;10.546;2022-12-18T11:01:14;102119.56;;;3.89;52.28
54455;BME280;40364;52.270;10.546;2022-12-18T11:03:43;102129.00;;;4.25;52.17
54455;BME280;40364;52.270;10.546;2022-12-18T11:06:12;102111.00;;;4.17;51.28
54455;BME280;40364;52.270;10.546;2022-12-18T11:08:39;102116.19;;;4.14;50.98
54455;BME280;40364;52.270;10.546;2022-12-18T11:11:15;102108.38;;;4.37;50.67
54455;BME280;40364;52.270;10.546;2022-12-18T11:14:01;102113.41;;;4.46;49.93
54455;BME280;40364;52.270;10.546;2022-12-18T11:16:34;102102.75;;;4.22;51.17
54455;BME280;40364;52.270;10.546;2022-12-18T11:19:19;102097.38;;;4.43;50.61
54455;BME280;40364;52.270;10.546;2022-12-18T11:21:48;102107.63;;;4.10;51.35
54455;BME280;40364;52.270;10.546;2022-12-18T11:24:20;102098.53;;;4.47;50.75
54455;BME280;40364;52.270;10.546;2022-12-18T11:26:49;102094.53;;;4.27;51.61
54455;BME280;40364;52.270;10.546;2022-12-18T11:29:17;102086.09;;;5.01;50.58
54455;BME280;40364;52.270;10.546;2022-12-18T11:31:46;102071.31;;;5.33;49.43
54455;BME280;40364;52.270;10.546;2022-12-18T11:34:17;102094.59;;;5.83;48.44
54455;BME280;40364;52.270;10.546;2022-12-18T11:36:46;102087.16;;;5.88;48.06
54455;BME280;40364;52.270;10.546;2022-12-18T11:39:18;102074.13;;;5.63;48.41
54455;BME280;40364;52.270;10.546;2022-12-18T11:41:50;102069.78;;;6.08;46.13
54455;BME280;40364;52.270;10.546;2022-12-18T11:44:42;102091.84;;;5.67;48.11
54455;BME280;40364;52.270;10.546;2022-12-18T11:47:16;102096.31;;;5.99;47.89
54455;BME280;40364;52.270;10.546;2022-12-18T11:49:47;102099.59;;;8.54;43.68
54455;BME280;40364;52.270;10.546;2022-12-18T11:52:18;102111.25;;;6.23;47.83
54455;BME280;40364;52.270;10.546;2022-12-18T11:54:51;102099.63;;;6.26;47.38
54455;BME280;40364;52.270;10.546;2022-12-18T11:57:26;102109.31;;;6.19;47.95
54455;BME280;40364;52.270;10.546;2022-12-18T12:00:02;102114.59;;;6.05;48.15
54455;BME280;40364;52.270;10.546;2022-12-18T12:02:42;102108.13;;;5.64;48.84
54455;BME280;40364;52.270;10.546;2022-12-18T12:05:31;102097.34;;;5.57;49.78
54455;BME280;40364;52.270;10.546;2022-12-18T12:08:04;102087.91;;;5.38;50.10
54455;BME280;40364;52.270;10.546;2022-12-18T12:10:42;102069.59;;;5.22;51.03
54455;BME280;40364;52.270;10.546;2022-12-18T12:13:23;102078.59;;;6.15;49.21
54455;BME280;40364;52.270;10.546;2022-12-18T12:16:02;102076.34;;;6.53;48.96
54455;BME280;40364;52.270;10.546;2022-12-18T12:18:41;102065.56;;;5.65;48.32
54455;BME280;40364;52.270;10.546;2022-12-18T12:21:16;102065.31;;;6.22;47.75
54455;BME280;40364;52.270;10.546;2022-12-18T12:23:51;102039.31;;;9.77;41.13
54455;BME280;40364;52.270;10.546;2022-12-18T12:26:26;102051.22;;;7.08;44.53
54455;BME280;40364;52.270;10.546;2022-12-18T12:29:03;102039.78;;;6.66;45.81
54455;BME280;40364;52.270;10.546;2022-12-18T12:31:51;102030.69;;;5.33;47.40
54455;BME280;40364;52.270;10.546;2022-12-18T12:34:23;102026.25;;;5.27;48.87
54455;BME280;40364;52.270;10.546;2022-12-18T12:37:13;102024.38;;;5.63;48.61
54455;BME280;40364;52.270;10.546;2022-12-18T12:39:44;102027.56;;;6.72;46.61
54455;BME280;40364;52.270;10.546;2022-12-18T12:42:17;102006.63;;;7.05;45.37
54455;BME280;40364;52.270;10.546;2022-12-18T12:45:05;102015.44;;;7.17;45.09
54455;BME280;40364;52.270;10.546;2022-12-18T12:47:36;102001.13;;;7.00;45.04
54455;BME280;40364;52.270;10.546;2022-12-18T12:50:13;102019.19;;;6.92;45.31
54455;BME280;40364;52.270;10.546;2022-12-18T12:52:43;102017.34;;;6.62;46.10
54455;BME280;40364;52.270;10.546;2022-12-18T12:55:16;102013.84;;;6.31;46.83
54455;BME280;40364;52.270;10.546;2022-12-18T12:57:46;102000.06;;;5.96;47.75
54455;BME280;40364;52.270;10.546;2022-12-18T13:00:16;101990.38;;;5.93;47.91
54455;BME280;40364;52.270;10.546;2022-12-18T13:02:49;101990.94;;;5.90;48.35